sensor_id;sensor_type;location;lat;lon;timestamp;P1;durP1;ratioP1;P2;durP2;ratioP2
6442;SDS011;3254;47.372;8.512;2023-04-25T00:00:15;2.63;;;2.40;;
6442;SDS011;3254;47.372;8.512;2023-04-25T00:02:41;5.07;;;2.10;;
6442;SDS011;3254;47.372;8.512;2023-04-25T00:05:08;3.73;;;2.20;;
6442;SDS011;3254;47.372;8.512;2023-04-25T00:07:34;3.40;;;3.10;;
6442;SDS011;3254;47.372;8.512;2023-04-25T00:10:00;4.50;;;2.70;;
6442;SDS011;3254;47.372;8.512;2023-04-25T00:12:25;12.40;;;2.23;;
6442;SDS011;3254;47.372;8.512;2023-04-25T00:14:53;2.70;;;2.17;;
6442;SDS011;3254;47.372;8.512;2023-04-25T00:17:21;2.40;;;2.30;;
6442;SDS011;3254;47.372;8.512;2023-04-25T00:19:54;3.07;;;2.87;;
6442;SDS011;3254;47.372;8.512;2023-04-25T00:22:20;7.10;;;2.73;;
6442;SDS011;3254;47.372;8.512;2023-04-25T00:24:46;3.70;;;2.10;;
6442;SDS011;3254;47.372;8.512;2023-04-25T00:27:12;2.40;;;2.20;;
6442;SDS011;3254;47.372;8.512;2023-04-25T00:29:38;2.90;;;2.70;;
6442;SDS011;3254;47.372;8.512;2023-04-25T00:32:03;5.20;;;2.60;;
6442;SDS011;3254;47.372;8.512;2023-04-25T00:34:29;6.97;;;2.30;;
6442;SDS011;3254;47.372;8.512;2023-04-25T00:36:55;6.40;;;2.80;;
6442;SDS011;3254;47.372;8.512;2023-04-25T00:39:21;11.03;;;2.33;;
6442;SDS011;3254;47.372;8.512;2023-04-25T00:41:47;2.57;;;2.10;;
6442;SDS011;3254;47.372;8.512;2023-04-25T00:44:13;4.80;;;2.50;;
6442;SDS011;3254;47.372;8.512;2023-04-25T00:46:42;4.63;;;2.50;;
6442;SDS011;3254;47.372;8.512;2023-04-25T00:49:07;4.87;;;2.23;;
6442;SDS011;3254;47.372;8.512;2023-04-25T00:51:35;4.10;;;2.47;;
6442;SDS011;3254;47.372;8.512;2023-04-25T00:54:00;3.93;;;2.30;;
6442;SDS011;3254;47.372;8.512;2023-04-25T00:56:26;2.87;;;2.20;;
6442;SDS011;3254;47.372;8.512;2023-04-25T00:58:53;3.53;;;3.20;;
6442;SDS011;3254;47.372;8.512;2023-04-25T01:01:21;2.70;;;2.50;;
6442;SDS011;3254;47.372;8.512;2023-04-25T01:03:49;2.70;;;2.33;;
6442;SDS011;3254;47.372;8.512;2023-04-25T01:06:15;3.40;;;2.43;;
6442;SDS011;3254;47.372;8.512;2023-04-25T01:08:41;3.00;;;2.63;;
6442;SDS011;3254;47.372;8.512;2023-04-25T01:11:08;4.13;;;3.00;;
6442;SDS011;3254;47.372;8.512;2023-04-25T01:13:34;5.07;;;3.13;;
6442;SDS011;3254;47.372;8.512;2023-04-25T01:16:01;2.53;;;2.33;;
6442;SDS011;3254;47.372;8.512;2023-04-25T01:18:27;4.80;;;2.83;;
6442;SDS011;3254;47.372;8.512;2023-04-25T01:20:54;9.03;;;2.87;;
6442;SDS011;3254;47.372;8.512;2023-04-25T01:23:21;3.13;;;2.67;;
6442;SDS011;3254;47.372;8.512;2023-04-25T01:25:47;3.97;;;2.60;;
6442;SDS011;3254;47.372;8.512;2023-04-25T01:28:15;12.40;;;3.43;;
6442;SDS011;3254;47.372;8.512;2023-04-25T01:30:41;3.43;;;3.13;;
6442;SDS011;3254;47.372;8.512;2023-04-25T01:33:08;6.23;;;3.40;;
6442;SDS011;3254;47.372;8.512;2023-04-25T01:35:37;6.87;;;3.83;;
6442;SDS011;3254;47.372;8.512;2023-04-25T01:38:04;7.87;;;3.10;;
6442;SDS011;3254;47.372;8.512;2023-04-25T01:40:30;3.43;;;3.20;;
6442;SDS011;3254;47.372;8.512;2023-04-25T01:42:56;4.03;;;3.30;;
6442;SDS011;3254;47.372;8.512;2023-04-25T01:45:22;6.03;;;3.30;;
6442;SDS011;3254;47.372;8.512;2023-04-25T01:47:52;4.47;;;3.87;;
6442;SDS011;3254;47.372;8.512;2023-04-25T01:50:18;3.20;;;3.00;;
6442;SDS011;3254;47.372;8.512;2023-04-25T01:52:44;7.90;;;3.23;;
6442;SDS011;3254;47.372;8.512;2023-04-25T01:55:11;5.17;;;3.70;;
6442;SDS011;3254;47.372;8.512;2023-04-25T01:57:36;4.30;;;3.20;;
6442;SDS011;3254;47.372;8.512;2023-04-25T02:00:05;4.20;;;3.20;;
6442;SDS011;3254;47.372;8.512;2023-04-25T02:02:32;7.77;;;3.53;;
6442;SDS011;3254;47.372;8.512;2023-04-25T02:04:57;3.80;;;3.50;;
6442;SDS011;3254;47.372;8.512;2023-04-25T02:07:23;6.73;;;3.87;;
6442;SDS011;3254;47.372;8.512;2023-04-25T02:09:49;3.60;;;3.30;;
6442;SDS011;3254;47.372;8.512;2023-04-25T02:12:15;5.17;;;4.23;;
6442;SDS011;3254;47.372;8.512;2023-04-25T02:14:41;3.43;;;3.17;;
6442;SDS011;3254;47.372;8.512;2023-04-25T02:17:07;9.10;;;4.00;;
6442;SDS011;3254;47.372;8.512;2023-04-25T02:19:37;12.67;;;3.77;;
6442;SDS011;3254;47.372;8.512;2023-04-25T02:22:03;4.90;;;2.73;;
6442;SDS011;3254;47.372;8.512;2023-04-25T02:24:29;3.97;;;2.83;;
6442;SDS011;3254;47.372;8.512;2023-04-25T02:26:54;4.33;;;3.87;;
6442;SDS011;3254;47.372;8.512;2023-04-25T02:29:21;4.27;;;3.47;;
6442;SDS011;3254;47.372;8.512;2023-04-25T02:31:48;3.20;;;3.00;;
6442;SDS011;3254;47.372;8.512;2023-04-25T02:34:13;4.80;;;3.63;;
6442;SDS011;3254;47.372;8.512;2023-04-25T02:36:39;4.87;;;3.53;;
6442;SDS011;3254;47.372;8.512;2023-04-25T02:39:04;8.77;;;3.90;;
6442;SDS011;3254;47.372;8.512;2023-04-25T02:41:30;6.03;;;3.50;;
6442;SDS011;3254;47.372;8.512;2023-04-25T02:43:56;6.80;;;3.30;;
6442;SDS011;3254;47.372;8.512;2023-04-25T02:46:21;6.23;;;3.80;;
6442;SDS011;3254;47.372;8.512;2023-04-25T02:48:47;3.30;;;3.00;;
6442;SDS011;3254;47.372;8.512;2023-04-25T02:51:14;3.87;;;3.43;;
6442;SDS011;3254;47.372;8.512;2023-04-25T02:53:41;5.13;;;3.30;;
6442;SDS011;3254;47.372;8.512;2023-04-25T02:56:07;11.13;;;3.67;;
6442;SDS011;3254;47.372;8.512;2023-04-25T02:58:32;3.97;;;3.57;;
6442;SDS011;3254;47.372;8.512;2023-04-25T03:00:58;7.40;;;3.57;;
6442;SDS011;3254;47.372;8.512;2023-04-25T03:03:24;3.20;;;2.90;;
6442;SDS011;3254;47.372;8.512;2023-04-25T03:05:50;3.00;;;2.90;;
6442;SDS011;3254;47.372;8.512;2023-04-25T03:08:16;5.30;;;3.30;;
6442;SDS011;3254;47.372;8.512;2023-04-25T03:10:43;7.17;;;3.60;;
6442;SDS011;3254;47.372;8.512;2023-04-25T03:13:09;10.23;;;4.00;;
6442;SDS011;3254;47.372;8.512;2023-04-25T03:15:37;4.67;;;3.60;;
6442;SDS011;3254;47.372;8.512;2023-04-25T03:18:03;6.53;;;3.50;;
6442;SDS011;3254;47.372;8.512;2023-04-25T03:20:29;7.60;;;4.00;;
6442;SDS011;3254;47.372;8.512;2023-04-25T03:22:55;5.60;;;3.30;;
6442;SDS011;3254;47.372;8.512;2023-04-25T03:25:21;3.83;;;3.50;;
6442;SDS011;3254;47.372;8.512;2023-04-25T03:27:46;6.93;;;3.60;;
6442;SDS011;3254;47.372;8.512;2023-04-25T03:30:12;6.87;;;3.33;;
6442;SDS011;3254;47.372;8.512;2023-04-25T03:32:37;9.83;;;3.70;;
6442;SDS011;3254;47.372;8.512;2023-04-25T03:35:03;4.10;;;3.70;;
6442;SDS011;3254;47.372;8.512;2023-04-25T03:37:30;5.20;;;4.00;;
6442;SDS011;3254;47.372;8.512;2023-04-25T03:39:55;5.43;;;3.77;;
6442;SDS011;3254;47.372;8.512;2023-04-25T03:42:21;5.77;;;3.80;;
6442;SDS011;3254;47.372;8.512;2023-04-25T03:44:48;6.70;;;3.37;;
6442;SDS011;3254;47.372;8.512;2023-04-25T03:47:17;6.10;;;3.93;;
6442;SDS011;3254;47.372;8.512;2023-04-25T03:49:42;4.35;;;3.70;;
6442;SDS011;3254;47.372;8.512;2023-04-25T03:52:09;3.88;;;3.58;;
6442;SDS011;3254;47.372;8.512;2023-04-25T03:54:35;13.87;;;4.73;;
6442;SDS011;3254;47.372;8.512;2023-04-25T03:57:00;3.23;;;3.00;;
6442;SDS011;3254;47.372;8.512;2023-04-25T03:59:26;10.10;;;3.30;;
6442;SDS011;3254;47.372;8.512;2023-04-25T04:01:52;9.73;;;3.67;;
6442;SDS011;3254;47.372;8.512;2023-04-25T04:04:18;9.30;;;4.50;;
6442;SDS011;3254;47.372;8.512;2023-04-25T04:06:45;5.95;;;3.35;;
6442;SDS011;3254;47.372;8.512;2023-04-25T04:09:10;7.63;;;3.43;;
6442;SDS011;3254;47.372;8.512;2023-04-25T04:11:37;9.00;;;4.47;;
6442;SDS011;3254;47.372;8.512;2023-04-25T04:14:05;7.25;;;4.43;;
6442;SDS011;3254;47.372;8.512;2023-04-25T04:16:32;5.75;;;4.20;;
6442;SDS011;3254;47.372;8.512;2023-04-25T04:18:58;9.77;;;4.90;;
6442;SDS011;3254;47.372;8.512;2023-04-25T04:21:24;6.50;;;4.70;;
6442;SDS011;3254;47.372;8.512;2023-04-25T04:23:49;7.50;;;4.87;;
6442;SDS011;3254;47.372;8.512;2023-04-25T04:26:16;4.73;;;4.40;;
6442;SDS011;3254;47.372;8.512;2023-04-25T04:28:43;4.85;;;4.55;;
6442;SDS011;3254;47.372;8.512;2023-04-25T04:31:09;7.70;;;5.30;;
6442;SDS011;3254;47.372;8.512;2023-04-25T04:33:36;9.80;;;5.05;;
6442;SDS011;3254;47.372;8.512;2023-04-25T04:36:02;6.03;;;4.97;;
6442;SDS011;3254;47.372;8.512;2023-04-25T04:38:32;6.90;;;4.95;;
6442;SDS011;3254;47.372;8.512;2023-04-25T04:40:58;14.17;;;5.13;;
6442;SDS011;3254;47.372;8.512;2023-04-25T04:43:23;13.27;;;5.07;;
6442;SDS011;3254;47.372;8.512;2023-04-25T04:45:49;6.57;;;5.13;;
6442;SDS011;3254;47.372;8.512;2023-04-25T04:48:15;7.93;;;4.97;;
6442;SDS011;3254;47.372;8.512;2023-04-25T04:50:42;6.72;;;5.10;;
6442;SDS011;3254;47.372;8.512;2023-04-25T04:53:11;8.60;;;5.05;;
6442;SDS011;3254;47.372;8.512;2023-04-25T04:55:38;12.38;;;5.95;;
6442;SDS011;3254;47.372;8.512;2023-04-25T04:58:06;9.75;;;5.57;;
6442;SDS011;3254;47.372;8.512;2023-04-25T05:00:32;4.80;;;4.50;;
6442;SDS011;3254;47.372;8.512;2023-04-25T05:02:58;5.80;;;5.18;;
6442;SDS011;3254;47.372;8.512;2023-04-25T05:05:24;13.63;;;5.97;;
6442;SDS011;3254;47.372;8.512;2023-04-25T05:07:53;6.23;;;4.33;;
6442;SDS011;3254;47.372;8.512;2023-04-25T05:10:21;15.67;;;5.70;;
6442;SDS011;3254;47.372;8.512;2023-04-25T05:12:48;12.13;;;5.70;;
6442;SDS011;3254;47.372;8.512;2023-04-25T05:15:19;5.73;;;5.23;;
6442;SDS011;3254;47.372;8.512;2023-04-25T05:17:44;5.53;;;3.90;;
6442;SDS011;3254;47.372;8.512;2023-04-25T05:20:10;3.63;;;3.07;;
6442;SDS011;3254;47.372;8.512;2023-04-25T05:22:36;9.80;;;2.77;;
6442;SDS011;3254;47.372;8.512;2023-04-25T05:25:03;2.60;;;2.30;;
6442;SDS011;3254;47.372;8.512;2023-04-25T05:27:28;4.20;;;1.60;;
6442;SDS011;3254;47.372;8.512;2023-04-25T05:29:56;6.93;;;2.67;;
6442;SDS011;3254;47.372;8.512;2023-04-25T05:32:21;3.67;;;2.30;;
6442;SDS011;3254;47.372;8.512;2023-04-25T05:34:47;3.50;;;2.30;;
6442;SDS011;3254;47.372;8.512;2023-04-25T05:37:13;9.17;;;2.67;;
6442;SDS011;3254;47.372;8.512;2023-04-25T05:39:39;3.27;;;2.00;;
6442;SDS011;3254;47.372;8.512;2023-04-25T05:42:05;6.23;;;1.70;;
6442;SDS011;3254;47.372;8.512;2023-04-25T05:44:31;6.63;;;2.30;;
6442;SDS011;3254;47.372;8.512;2023-04-25T05:46:59;3.73;;;2.03;;
6442;SDS011;3254;47.372;8.512;2023-04-25T05:49:25;2.97;;;1.80;;
6442;SDS011;3254;47.372;8.512;2023-04-25T05:51:50;5.10;;;2.57;;
6442;SDS011;3254;47.372;8.512;2023-04-25T05:54:16;3.13;;;1.80;;
6442;SDS011;3254;47.372;8.512;2023-04-25T05:56:42;2.40;;;2.20;;
6442;SDS011;3254;47.372;8.512;2023-04-25T05:59:07;2.00;;;1.80;;
6442;SDS011;3254;47.372;8.512;2023-04-25T06:01:33;3.13;;;1.60;;
6442;SDS011;3254;47.372;8.512;2023-04-25T06:03:58;2.27;;;1.80;;
6442;SDS011;3254;47.372;8.512;2023-04-25T06:06:24;3.10;;;1.40;;
6442;SDS011;3254;47.372;8.512;2023-04-25T06:08:51;6.50;;;1.70;;
6442;SDS011;3254;47.372;8.512;2023-04-25T06:11:17;1.83;;;1.73;;
6442;SDS011;3254;47.372;8.512;2023-04-25T06:13:42;2.10;;;1.50;;
6442;SDS011;3254;47.372;8.512;2023-04-25T06:16:08;8.83;;;1.50;;
6442;SDS011;3254;47.372;8.512;2023-04-25T06:18:33;3.47;;;1.80;;
6442;SDS011;3254;47.372;8.512;2023-04-25T06:20:59;2.10;;;1.87;;
6442;SDS011;3254;47.372;8.512;2023-04-25T06:23:25;3.93;;;2.30;;
6442;SDS011;3254;47.372;8.512;2023-04-25T06:25:51;6.73;;;2.93;;
6442;SDS011;3254;47.372;8.512;2023-04-25T06:28:16;11.40;;;2.60;;
6442;SDS011;3254;47.372;8.512;2023-04-25T06:30:42;4.40;;;2.37;;
6442;SDS011;3254;47.372;8.512;2023-04-25T06:33:07;5.60;;;2.97;;
6442;SDS011;3254;47.372;8.512;2023-04-25T06:35:33;8.03;;;3.37;;
6442;SDS011;3254;47.372;8.512;2023-04-25T06:37:59;4.70;;;3.17;;
6442;SDS011;3254;47.372;8.512;2023-04-25T06:40:25;5.20;;;3.20;;
6442;SDS011;3254;47.372;8.512;2023-04-25T06:42:50;3.63;;;2.83;;
6442;SDS011;3254;47.372;8.512;2023-04-25T06:45:16;6.70;;;2.93;;
6442;SDS011;3254;47.372;8.512;2023-04-25T06:47:42;8.10;;;4.13;;
6442;SDS011;3254;47.372;8.512;2023-04-25T06:50:09;2.85;;;2.67;;
6442;SDS011;3254;47.372;8.512;2023-04-25T06:52:35;3.67;;;3.05;;
6442;SDS011;3254;47.372;8.512;2023-04-25T06:55:02;2.85;;;2.65;;
6442;SDS011;3254;47.372;8.512;2023-04-25T06:57:29;4.90;;;2.15;;
6442;SDS011;3254;47.372;8.512;2023-04-25T06:59:55;2.70;;;2.50;;
6442;SDS011;3254;47.372;8.512;2023-04-25T07:02:20;2.67;;;2.47;;
6442;SDS011;3254;47.372;8.512;2023-04-25T07:04:47;2.10;;;1.90;;
6442;SDS011;3254;47.372;8.512;2023-04-25T07:07:14;2.33;;;2.22;;
6442;SDS011;3254;47.372;8.512;2023-04-25T07:09:39;2.40;;;2.27;;
6442;SDS011;3254;47.372;8.512;2023-04-25T07:12:06;2.38;;;2.25;;
6442;SDS011;3254;47.372;8.512;2023-04-25T07:14:31;5.90;;;2.30;;
6442;SDS011;3254;47.372;8.512;2023-04-25T07:16:57;3.33;;;2.30;;
6442;SDS011;3254;47.372;8.512;2023-04-25T07:19:22;2.53;;;2.43;;
6442;SDS011;3254;47.372;8.512;2023-04-25T07:21:55;2.35;;;1.85;;
6442;SDS011;3254;47.372;8.512;2023-04-25T07:24:21;3.10;;;2.37;;
6442;SDS011;3254;47.372;8.512;2023-04-25T07:26:48;2.33;;;2.13;;
6442;SDS011;3254;47.372;8.512;2023-04-25T07:29:14;9.23;;;2.90;;
6442;SDS011;3254;47.372;8.512;2023-04-25T07:31:43;2.17;;;2.07;;
6442;SDS011;3254;47.372;8.512;2023-04-25T07:34:08;4.30;;;3.00;;
6442;SDS011;3254;47.372;8.512;2023-04-25T07:36:35;3.10;;;3.00;;
6442;SDS011;3254;47.372;8.512;2023-04-25T07:39:03;3.10;;;2.90;;
6442;SDS011;3254;47.372;8.512;2023-04-25T07:41:28;3.07;;;2.97;;
6442;SDS011;3254;47.372;8.512;2023-04-25T07:43:57;3.40;;;2.40;;
6442;SDS011;3254;47.372;8.512;2023-04-25T07:46:23;2.50;;;2.27;;
6442;SDS011;3254;47.372;8.512;2023-04-25T07:48:49;2.63;;;2.43;;
6442;SDS011;3254;47.372;8.512;2023-04-25T07:51:15;2.23;;;2.03;;
6442;SDS011;3254;47.372;8.512;2023-04-25T07:53:40;3.10;;;1.90;;
6442;SDS011;3254;47.372;8.512;2023-04-25T07:56:06;3.60;;;2.47;;
6442;SDS011;3254;47.372;8.512;2023-04-25T07:58:31;2.43;;;1.90;;
6442;SDS011;3254;47.372;8.512;2023-04-25T08:00:57;2.87;;;2.67;;
6442;SDS011;3254;47.372;8.512;2023-04-25T08:03:24;1.63;;;1.43;;
6442;SDS011;3254;47.372;8.512;2023-04-25T08:05:49;2.53;;;2.33;;
6442;SDS011;3254;47.372;8.512;2023-04-25T08:08:15;2.30;;;2.20;;
6442;SDS011;3254;47.372;8.512;2023-04-25T08:10:41;2.70;;;1.80;;
6442;SDS011;3254;47.372;8.512;2023-04-25T08:13:08;1.80;;;1.70;;
6442;SDS011;3254;47.372;8.512;2023-04-25T08:15:34;1.80;;;1.70;;
6442;SDS011;3254;47.372;8.512;2023-04-25T08:18:00;4.67;;;1.73;;
6442;SDS011;3254;47.372;8.512;2023-04-25T08:20:27;2.53;;;1.50;;
6442;SDS011;3254;47.372;8.512;2023-04-25T08:22:57;2.50;;;1.93;;
6442;SDS011;3254;47.372;8.512;2023-04-25T08:25:22;1.40;;;1.30;;
6442;SDS011;3254;47.372;8.512;2023-04-25T08:27:48;1.40;;;1.30;;
6442;SDS011;3254;47.372;8.512;2023-04-25T08:30:13;1.37;;;1.27;;
6442;SDS011;3254;47.372;8.512;2023-04-25T08:32:42;1.80;;;1.70;;
6442;SDS011;3254;47.372;8.512;2023-04-25T08:35:09;2.17;;;1.97;;
6442;SDS011;3254;47.372;8.512;2023-04-25T08:37:36;1.60;;;1.50;;
6442;SDS011;3254;47.372;8.512;2023-04-25T08:40:04;1.80;;;1.67;;
6442;SDS011;3254;47.372;8.512;2023-04-25T08:42:32;1.43;;;1.33;;
6442;SDS011;3254;47.372;8.512;2023-04-25T08:45:03;1.40;;;1.30;;
6442;SDS011;3254;47.372;8.512;2023-04-25T08:47:29;1.60;;;1.50;;
6442;SDS011;3254;47.372;8.512;2023-04-25T08:49:59;1.60;;;1.50;;
6442;SDS011;3254;47.372;8.512;2023-04-25T08:52:35;1.50;;;1.27;;
6442;SDS011;3254;47.372;8.512;2023-04-25T08:55:03;1.50;;;1.40;;
6442;SDS011;3254;47.372;8.512;2023-04-25T08:57:33;1.50;;;1.40;;
6442;SDS011;3254;47.372;8.512;2023-04-25T09:00:02;1.63;;;1.30;;
6442;SDS011;3254;47.372;8.512;2023-04-25T09:02:28;2.17;;;1.20;;
6442;SDS011;3254;47.372;8.512;2023-04-25T09:04:54;1.67;;;1.57;;
6442;SDS011;3254;47.372;8.512;2023-04-25T09:07:22;2.13;;;1.40;;
6442;SDS011;3254;47.372;8.512;2023-04-25T09:09:48;1.60;;;1.50;;
6442;SDS011;3254;47.372;8.512;2023-04-25T09:12:14;1.70;;;1.37;;
6442;SDS011;3254;47.372;8.512;2023-04-25T09:14:40;2.03;;;1.50;;
6442;SDS011;3254;47.372;8.512;2023-04-25T09:17:07;1.70;;;1.60;;
6442;SDS011;3254;47.372;8.512;2023-04-25T09:19:34;1.63;;;1.50;;
6442;SDS011;3254;47.372;8.512;2023-04-25T09:22:02;1.43;;;1.33;;
6442;SDS011;3254;47.372;8.512;2023-04-25T09:24:40;1.63;;;1.40;;
6442;SDS011;3254;47.372;8.512;2023-04-25T09:27:09;2.60;;;1.73;;
6442;SDS011;3254;47.372;8.512;2023-04-25T09:29:36;2.13;;;1.53;;
6442;SDS011;3254;47.372;8.512;2023-04-25T09:32:16;2.80;;;1.50;;
6442;SDS011;3254;47.372;8.512;2023-04-25T09:34:49;4.03;;;1.73;;
6442;SDS011;3254;47.372;8.512;2023-04-25T09:37:21;1.37;;;1.27;;
6442;SDS011;3254;47.372;8.512;2023-04-25T09:39:49;2.30;;;0.90;;
6442;SDS011;3254;47.372;8.512;2023-04-25T09:42:24;1.60;;;0.93;;
6442;SDS011;3254;47.372;8.512;2023-04-25T09:44:53;9.17;;;1.10;;
6442;SDS011;3254;47.372;8.512;2023-04-25T09:47:20;1.67;;;1.03;;
6442;SDS011;3254;47.372;8.512;2023-04-25T09:49:50;1.40;;;1.30;;
6442;SDS011;3254;47.372;8.512;2023-04-25T09:52:17;3.43;;;1.30;;
6442;SDS011;3254;47.372;8.512;2023-04-25T09:54:45;1.40;;;1.10;;
6442;SDS011;3254;47.372;8.512;2023-04-25T09:57:15;0.90;;;0.90;;
6442;SDS011;3254;47.372;8.512;2023-04-25T09:59:48;1.20;;;1.10;;
6442;SDS011;3254;47.372;8.512;2023-04-25T10:02:16;1.53;;;1.20;;
6442;SDS011;3254;47.372;8.512;2023-04-25T10:04:50;3.67;;;1.57;;
6442;SDS011;3254;47.372;8.512;2023-04-25T10:07:19;1.10;;;1.00;;
6442;SDS011;3254;47.372;8.512;2023-04-25T10:09:53;1.37;;;1.00;;
6442;SDS011;3254;47.372;8.512;2023-04-25T10:12:26;1.33;;;1.23;;
6442;SDS011;3254;47.372;8.512;2023-04-25T10:14:52;1.30;;;1.20;;
6442;SDS011;3254;47.372;8.512;2023-04-25T10:17:19;1.10;;;1.00;;
6442;SDS011;3254;47.372;8.512;2023-04-25T10:19:49;0.90;;;0.90;;
6442;SDS011;3254;47.372;8.512;2023-04-25T10:25:01;2.30;;;1.10;;
6442;SDS011;3254;47.372;8.512;2023-04-25T10:27:33;0.90;;;0.80;;
6442;SDS011;3254;47.372;8.512;2023-04-25T10:32:41;0.90;;;0.80;;
6442;SDS011;3254;47.372;8.512;2023-04-25T10:35:12;0.70;;;0.70;;
6442;SDS011;3254;47.372;8.512;2023-04-25T10:40:33;1.00;;;0.60;;
6442;SDS011;3254;47.372;8.512;2023-04-25T10:45:55;1.00;;;0.90;;
6442;SDS011;3254;47.372;8.512;2023-04-25T10:48:27;1.00;;;0.57;;
6442;SDS011;3254;47.372;8.512;2023-04-25T10:51:15;1.10;;;0.60;;
6442;SDS011;3254;47.372;8.512;2023-04-25T10:53:46;1.47;;;0.80;;
6442;SDS011;3254;47.372;8.512;2023-04-25T10:56:22;1.20;;;0.87;;
6442;SDS011;3254;47.372;8.512;2023-04-25T10:58:50;0.70;;;0.60;;
6442;SDS011;3254;47.372;8.512;2023-04-25T11:01:20;3.43;;;0.90;;
6442;SDS011;3254;47.372;8.512;2023-04-25T11:03:46;4.27;;;1.10;;
6442;SDS011;3254;47.372;8.512;2023-04-25T11:09:02;0.73;;;0.60;;
6442;SDS011;3254;47.372;8.512;2023-04-25T11:11:36;1.40;;;0.67;;
6442;SDS011;3254;47.372;8.512;2023-04-25T11:14:03;1.27;;;0.67;;
6442;SDS011;3254;47.372;8.512;2023-04-25T11:16:29;1.10;;;0.70;;
6442;SDS011;3254;47.372;8.512;2023-04-25T11:18:57;1.53;;;0.87;;
6442;SDS011;3254;47.372;8.512;2023-04-25T11:21:23;0.83;;;0.70;;
6442;SDS011;3254;47.372;8.512;2023-04-25T11:23:51;1.10;;;0.90;;
6442;SDS011;3254;47.372;8.512;2023-04-25T11:26:19;1.07;;;1.00;;
6442;SDS011;3254;47.372;8.512;2023-04-25T11:28:46;1.80;;;0.70;;
6442;SDS011;3254;47.372;8.512;2023-04-25T11:31:12;1.03;;;0.60;;
6442;SDS011;3254;47.372;8.512;2023-04-25T11:33:38;1.10;;;1.00;;
6442;SDS011;3254;47.372;8.512;2023-04-25T11:36:05;6.07;;;0.90;;
6442;SDS011;3254;47.372;8.512;2023-04-25T11:38:31;1.57;;;0.80;;
6442;SDS011;3254;47.372;8.512;2023-04-25T11:40:57;1.33;;;1.23;;
6442;SDS011;3254;47.372;8.512;2023-04-25T11:43:25;0.80;;;0.80;;
6442;SDS011;3254;47.372;8.512;2023-04-25T11:45:50;9.40;;;0.90;;
6442;SDS011;3254;47.372;8.512;2023-04-25T11:48:17;1.63;;;0.83;;
6442;SDS011;3254;47.372;8.512;2023-04-25T11:50:44;1.17;;;1.07;;
6442;SDS011;3254;47.372;8.512;2023-04-25T11:53:10;1.10;;;1.00;;
6442;SDS011;3254;47.372;8.512;2023-04-25T11:55:36;2.10;;;0.97;;
6442;SDS011;3254;47.372;8.512;2023-04-25T11:58:02;3.10;;;0.80;;
6442;SDS011;3254;47.372;8.512;2023-04-25T12:00:29;0.80;;;0.70;;
6442;SDS011;3254;47.372;8.512;2023-04-25T12:02:56;1.73;;;0.97;;
6442;SDS011;3254;47.372;8.512;2023-04-25T12:05:24;1.20;;;0.90;;
6442;SDS011;3254;47.372;8.512;2023-04-25T12:07:56;3.37;;;0.67;;
6442;SDS011;3254;47.372;8.512;2023-04-25T12:10:23;10.30;;;0.90;;
6442;SDS011;3254;47.372;8.512;2023-04-25T12:12:51;2.70;;;0.77;;
6442;SDS011;3254;47.372;8.512;2023-04-25T12:15:17;1.00;;;0.80;;
6442;SDS011;3254;47.372;8.512;2023-04-25T12:17:48;6.70;;;1.33;;
6442;SDS011;3254;47.372;8.512;2023-04-25T12:20:16;2.40;;;1.00;;
6442;SDS011;3254;47.372;8.512;2023-04-25T12:22:44;1.03;;;0.93;;
6442;SDS011;3254;47.372;8.512;2023-04-25T12:25:13;1.70;;;1.00;;
6442;SDS011;3254;47.372;8.512;2023-04-25T12:28:09;2.27;;;1.20;;
6442;SDS011;3254;47.372;8.512;2023-04-25T12:30:55;1.17;;;0.80;;
6442;SDS011;3254;47.372;8.512;2023-04-25T12:33:32;2.50;;;1.00;;
6442;SDS011;3254;47.372;8.512;2023-04-25T12:36:00;3.33;;;1.30;;
6442;SDS011;3254;47.372;8.512;2023-04-25T12:38:37;2.30;;;1.20;;
6442;SDS011;3254;47.372;8.512;2023-04-25T12:41:05;4.30;;;1.17;;
6442;SDS011;3254;47.372;8.512;2023-04-25T12:43:32;1.37;;;1.27;;
6442;SDS011;3254;47.372;8.512;2023-04-25T12:45:59;1.20;;;1.10;;
6442;SDS011;3254;47.372;8.512;2023-04-25T12:48:25;1.60;;;1.50;;
6442;SDS011;3254;47.372;8.512;2023-04-25T12:50:52;1.60;;;1.50;;
6442;SDS011;3254;47.372;8.512;2023-04-25T12:53:19;2.53;;;1.13;;
6442;SDS011;3254;47.372;8.512;2023-04-25T12:55:47;1.57;;;1.30;;
6442;SDS011;3254;47.372;8.512;2023-04-25T12:58:16;1.30;;;1.20;;
6442;SDS011;3254;47.372;8.512;2023-04-25T13:00:44;1.50;;;1.30;;
6442;SDS011;3254;47.372;8.512;2023-04-25T13:03:10;3.13;;;1.03;;
6442;SDS011;3254;47.372;8.512;2023-04-25T13:05:37;2.20;;;1.30;;
6442;SDS011;3254;47.372;8.512;2023-04-25T13:08:04;8.63;;;1.10;;
6442;SDS011;3254;47.372;8.512;2023-04-25T13:10:30;4.60;;;1.30;;
6442;SDS011;3254;47.372;8.512;2023-04-25T13:12:56;2.07;;;1.50;;
6442;SDS011;3254;47.372;8.512;2023-04-25T13:15:21;1.50;;;1.20;;
6442;SDS011;3254;47.372;8.512;2023-04-25T13:17:48;1.50;;;1.40;;
6442;SDS011;3254;47.372;8.512;2023-04-25T13:20:15;1.50;;;1.40;;
6442;SDS011;3254;47.372;8.512;2023-04-25T13:22:42;1.30;;;1.13;;
6442;SDS011;3254;47.372;8.512;2023-04-25T13:25:10;1.60;;;1.13;;
6442;SDS011;3254;47.372;8.512;2023-04-25T13:27:37;1.40;;;1.30;;
6442;SDS011;3254;47.372;8.512;2023-04-25T13:30:08;3.03;;;1.10;;
6442;SDS011;3254;47.372;8.512;2023-04-25T13:32:34;2.63;;;1.53;;
6442;SDS011;3254;47.372;8.512;2023-04-25T13:35:03;2.90;;;1.33;;
6442;SDS011;3254;47.372;8.512;2023-04-25T13:37:32;1.43;;;1.13;;
6442;SDS011;3254;47.372;8.512;2023-04-25T13:40:03;1.10;;;1.00;;
6442;SDS011;3254;47.372;8.512;2023-04-25T13:42:34;1.50;;;1.40;;
6442;SDS011;3254;47.372;8.512;2023-04-25T13:45:00;1.40;;;1.30;;
6442;SDS011;3254;47.372;8.512;2023-04-25T13:47:26;5.63;;;1.10;;
6442;SDS011;3254;47.372;8.512;2023-04-25T13:49:53;1.70;;;1.10;;
6442;SDS011;3254;47.372;8.512;2023-04-25T13:52:25;10.73;;;1.40;;
6442;SDS011;3254;47.372;8.512;2023-04-25T13:54:50;1.50;;;1.40;;
6442;SDS011;3254;47.372;8.512;2023-04-25T13:57:17;1.20;;;1.10;;
6442;SDS011;3254;47.372;8.512;2023-04-25T13:59:43;4.70;;;1.23;;
6442;SDS011;3254;47.372;8.512;2023-04-25T14:02:11;5.57;;;1.30;;
6442;SDS011;3254;47.372;8.512;2023-04-25T14:04:37;1.63;;;1.53;;
6442;SDS011;3254;47.372;8.512;2023-04-25T14:07:03;4.00;;;1.10;;
6442;SDS011;3254;47.372;8.512;2023-04-25T14:09:30;2.20;;;0.90;;
6442;SDS011;3254;47.372;8.512;2023-04-25T14:11:57;1.63;;;1.17;;
6442;SDS011;3254;47.372;8.512;2023-04-25T14:14:25;1.23;;;1.13;;
6442;SDS011;3254;47.372;8.512;2023-04-25T14:16:51;2.60;;;1.67;;
6442;SDS011;3254;47.372;8.512;2023-04-25T14:19:18;3.83;;;1.47;;
6442;SDS011;3254;47.372;8.512;2023-04-25T14:21:45;1.67;;;1.57;;
6442;SDS011;3254;47.372;8.512;2023-04-25T14:24:11;2.67;;;2.57;;
6442;SDS011;3254;47.372;8.512;2023-04-25T14:26:37;3.30;;;1.50;;
6442;SDS011;3254;47.372;8.512;2023-04-25T14:29:04;1.40;;;1.17;;
6442;SDS011;3254;47.372;8.512;2023-04-25T14:31:31;3.63;;;1.80;;
6442;SDS011;3254;47.372;8.512;2023-04-25T14:33:57;5.17;;;1.30;;
6442;SDS011;3254;47.372;8.512;2023-04-25T14:36:23;6.50;;;2.57;;
6442;SDS011;3254;47.372;8.512;2023-04-25T14:38:50;1.50;;;1.40;;
6442;SDS011;3254;47.372;8.512;2023-04-25T14:41:16;1.30;;;0.90;;
6442;SDS011;3254;47.372;8.512;2023-04-25T14:43:41;3.50;;;1.57;;
6442;SDS011;3254;47.372;8.512;2023-04-25T14:46:07;2.53;;;1.57;;
6442;SDS011;3254;47.372;8.512;2023-04-25T14:48:34;1.57;;;1.47;;
6442;SDS011;3254;47.372;8.512;2023-04-25T14:51:01;2.13;;;1.70;;
6442;SDS011;3254;47.372;8.512;2023-04-25T14:53:31;2.03;;;1.93;;
6442;SDS011;3254;47.372;8.512;2023-04-25T14:55:59;1.67;;;1.57;;
6442;SDS011;3254;47.372;8.512;2023-04-25T14:58:26;1.53;;;1.37;;
6442;SDS011;3254;47.372;8.512;2023-04-25T15:00:52;1.60;;;1.43;;
6442;SDS011;3254;47.372;8.512;2023-04-25T15:03:17;6.10;;;1.50;;
6442;SDS011;3254;47.372;8.512;2023-04-25T15:05:43;1.97;;;1.20;;
6442;SDS011;3254;47.372;8.512;2023-04-25T15:08:10;0.90;;;0.90;;
6442;SDS011;3254;47.372;8.512;2023-04-25T15:10:36;1.37;;;1.17;;
6442;SDS011;3254;47.372;8.512;2023-04-25T15:13:01;1.30;;;1.20;;
6442;SDS011;3254;47.372;8.512;2023-04-25T15:15:28;1.17;;;1.07;;
6442;SDS011;3254;47.372;8.512;2023-04-25T15:17:54;1.27;;;0.70;;
6442;SDS011;3254;47.372;8.512;2023-04-25T15:20:21;1.70;;;1.07;;
6442;SDS011;3254;47.372;8.512;2023-04-25T15:22:50;1.00;;;0.90;;
6442;SDS011;3254;47.372;8.512;2023-04-25T15:25:22;8.00;;;1.10;;
6442;SDS011;3254;47.372;8.512;2023-04-25T15:27:47;2.80;;;0.77;;